sensor_id;sensor_type;location;lat;lon;timestamp;P1;durP1;ratioP1;P2;durP2;ratioP2
7336;SDS011;54510;42.016;23.098;2023-11-19T00:00:45;3.63;;;1.10;;
7336;SDS011;54510;42.016;23.098;2023-11-19T00:03:10;2.75;;;1.17;;
7336;SDS011;54510;42.016;23.098;2023-11-19T00:05:36;2.60;;;1.73;;
7336;SDS011;54510;42.016;23.098;2023-11-19T00:08:01;3.55;;;1.15;;
7336;SDS011;54510;42.016;23.098;2023-11-19T00:10:27;2.70;;;1.20;;
7336;SDS011;54510;42.016;23.098;2023-11-19T00:12:52;1.50;;;1.15;;
7336;SDS011;54510;42.016;23.098;2023-11-19T00:15:18;2.47;;;1.60;;
7336;SDS011;54510;42.016;23.098;2023-11-19T00:17:47;2.13;;;1.50;;
7336;SDS011;54510;42.016;23.098;2023-11-19T00:20:16;1.88;;;1.17;;
7336;SDS011;54510;42.016;23.098;2023-11-19T00:22:43;4.78;;;1.42;;
7336;SDS011;54510;42.016;23.098;2023-11-19T00:25:09;1.88;;;1.23;;
7336;SDS011;54510;42.016;23.098;2023-11-19T00:27:35;2.50;;;1.58;;
7336;SDS011;54510;42.016;23.098;2023-11-19T00:30:02;2.67;;;1.10;;
7336;SDS011;54510;42.016;23.098;2023-11-19T00:32:30;3.88;;;1.48;;
7336;SDS011;54510;42.016;23.098;2023-11-19T00:34:56;2.42;;;1.40;;
7336;SDS011;54510;42.016;23.098;2023-11-19T00:37:21;2.08;;;1.35;;
7336;SDS011;54510;42.016;23.098;2023-11-19T00:39:46;2.60;;;1.05;;
7336;SDS011;54510;42.016;23.098;2023-11-19T00:42:12;1.83;;;1.52;;
7336;SDS011;54510;42.016;23.098;2023-11-19T00:44:37;2.35;;;1.27;;
7336;SDS011;54510;42.016;23.098;2023-11-19T00:47:03;1.17;;;1.05;;
7336;SDS011;54510;42.016;23.098;2023-11-19T00:49:28;2.58;;;1.25;;
7336;SDS011;54510;42.016;23.098;2023-11-19T00:51:54;2.28;;;1.30;;
7336;SDS011;54510;42.016;23.098;2023-11-19T00:54:19;7.43;;;1.20;;
7336;SDS011;54510;42.016;23.098;2023-11-19T00:56:45;1.58;;;0.93;;
7336;SDS011;54510;42.016;23.098;2023-11-19T00:59:10;2.45;;;1.00;;
7336;SDS011;54510;42.016;23.098;2023-11-19T01:01:36;2.60;;;1.27;;
7336;SDS011;54510;42.016;23.098;2023-11-19T01:04:01;2.60;;;1.80;;
7336;SDS011;54510;42.016;23.098;2023-11-19T01:06:28;2.15;;;1.20;;
7336;SDS011;54510;42.016;23.098;2023-11-19T01:08:54;2.63;;;1.48;;
7336;SDS011;54510;42.016;23.098;2023-11-19T01:11:23;1.63;;;1.27;;
7336;SDS011;54510;42.016;23.098;2023-11-19T01:13:49;1.45;;;1.13;;
7336;SDS011;54510;42.016;23.098;2023-11-19T01:16:14;1.92;;;1.20;;
7336;SDS011;54510;42.016;23.098;2023-11-19T01:18:40;1.40;;;1.00;;
7336;SDS011;54510;42.016;23.098;2023-11-19T01:21:06;1.50;;;1.08;;
7336;SDS011;54510;42.016;23.098;2023-11-19T01:23:31;1.92;;;1.15;;
7336;SDS011;54510;42.016;23.098;2023-11-19T01:25:57;2.05;;;1.23;;
7336;SDS011;54510;42.016;23.098;2023-11-19T01:28:23;2.70;;;1.50;;
7336;SDS011;54510;42.016;23.098;2023-11-19T01:30:50;1.58;;;1.30;;
7336;SDS011;54510;42.016;23.098;2023-11-19T01:33:16;1.73;;;1.35;;
7336;SDS011;54510;42.016;23.098;2023-11-19T01:35:41;3.35;;;1.02;;
7336;SDS011;54510;42.016;23.098;2023-11-19T01:38:07;2.22;;;1.15;;
7336;SDS011;54510;42.016;23.098;2023-11-19T01:40:33;1.30;;;1.17;;
7336;SDS011;54510;42.016;23.098;2023-11-19T01:42:59;1.50;;;1.10;;
7336;SDS011;54510;42.016;23.098;2023-11-19T01:45:29;1.58;;;1.15;;
7336;SDS011;54510;42.016;23.098;2023-11-19T01:48:00;2.60;;;1.80;;
7336;SDS011;54510;42.016;23.098;2023-11-19T01:50:28;2.35;;;1.42;;
7336;SDS011;54510;42.016;23.098;2023-11-19T01:52:55;3.85;;;1.60;;
7336;SDS011;54510;42.016;23.098;2023-11-19T01:55:25;2.33;;;1.50;;
7336;SDS011;54510;42.016;23.098;2023-11-19T01:57:53;2.67;;;1.42;;
7336;SDS011;54510;42.016;23.098;2023-11-19T02:00:22;2.83;;;1.35;;
7336;SDS011;54510;42.016;23.098;2023-11-19T02:02:49;3.55;;;1.90;;
7336;SDS011;54510;42.016;23.098;2023-11-19T02:05:17;4.13;;;1.75;;
7336;SDS011;54510;42.016;23.098;2023-11-19T02:07:42;3.83;;;1.40;;
7336;SDS011;54510;42.016;23.098;2023-11-19T02:10:08;2.97;;;1.20;;
7336;SDS011;54510;42.016;23.098;2023-11-19T02:12:38;1.27;;;0.90;;
7336;SDS011;54510;42.016;23.098;2023-11-19T02:15:08;3.03;;;1.23;;
7336;SDS011;54510;42.016;23.098;2023-11-19T02:17:34;1.63;;;0.98;;
7336;SDS011;54510;42.016;23.098;2023-11-19T02:20:02;2.88;;;1.30;;
7336;SDS011;54510;42.016;23.098;2023-11-19T02:22:31;1.83;;;1.48;;
7336;SDS011;54510;42.016;23.098;2023-11-19T02:24:58;1.88;;;1.00;;
7336;SDS011;54510;42.016;23.098;2023-11-19T02:27:44;2.08;;;1.15;;
7336;SDS011;54510;42.016;23.098;2023-11-19T02:30:37;7.53;;;1.80;;
7336;SDS011;54510;42.016;23.098;2023-11-19T02:33:02;3.05;;;1.90;;
7336;SDS011;54510;42.016;23.098;2023-11-19T02:35:30;2.17;;;1.42;;
7336;SDS011;54510;42.016;23.098;2023-11-19T02:37:58;3.88;;;1.65;;
7336;SDS011;54510;42.016;23.098;2023-11-19T02:40:29;7.57;;;1.65;;
7336;SDS011;54510;42.016;23.098;2023-11-19T02:42:54;3.10;;;1.13;;
7336;SDS011;54510;42.016;23.098;2023-11-19T02:45:22;3.83;;;1.13;;
7336;SDS011;54510;42.016;23.098;2023-11-19T02:47:48;3.40;;;1.55;;
7336;SDS011;54510;42.016;23.098;2023-11-19T02:50:14;6.40;;;2.22;;
7336;SDS011;54510;42.016;23.098;2023-11-19T02:52:43;4.72;;;1.27;;
7336;SDS011;54510;42.016;23.098;2023-11-19T02:55:10;7.38;;;1.83;;
7336;SDS011;54510;42.016;23.098;2023-11-19T02:57:39;5.25;;;1.35;;
7336;SDS011;54510;42.016;23.098;2023-11-19T03:00:12;7.60;;;2.33;;
7336;SDS011;54510;42.016;23.098;2023-11-19T03:02:39;4.70;;;1.90;;
7336;SDS011;54510;42.016;23.098;2023-11-19T03:05:11;3.08;;;1.85;;
7336;SDS011;54510;42.016;23.098;2023-11-19T03:07:39;4.97;;;1.33;;
7336;SDS011;54510;42.016;23.098;2023-11-19T03:10:05;4.25;;;1.52;;
7336;SDS011;54510;42.016;23.098;2023-11-19T03:12:31;2.17;;;1.55;;
7336;SDS011;54510;42.016;23.098;2023-11-19T03:14:57;4.38;;;1.90;;
7336;SDS011;54510;42.016;23.098;2023-11-19T03:17:22;5.32;;;1.52;;
7336;SDS011;54510;42.016;23.098;2023-11-19T03:19:49;9.25;;;2.28;;
7336;SDS011;54510;42.016;23.098;2023-11-19T03:22:14;10.07;;;2.30;;
7336;SDS011;54510;42.016;23.098;2023-11-19T03:24:40;8.05;;;2.10;;
7336;SDS011;54510;42.016;23.098;2023-11-19T03:27:05;5.95;;;1.63;;
7336;SDS011;54510;42.016;23.098;2023-11-19T03:29:31;2.42;;;1.35;;
7336;SDS011;54510;42.016;23.098;2023-11-19T03:31:56;7.78;;;2.10;;
7336;SDS011;54510;42.016;23.098;2023-11-19T03:34:21;6.75;;;1.75;;
7336;SDS011;54510;42.016;23.098;2023-11-19T03:36:47;4.10;;;1.50;;
7336;SDS011;54510;42.016;23.098;2023-11-19T03:39:14;5.28;;;2.28;;
7336;SDS011;54510;42.016;23.098;2023-11-19T03:41:39;6.65;;;1.58;;
7336;SDS011;54510;42.016;23.098;2023-11-19T03:44:04;1.80;;;1.05;;
7336;SDS011;54510;42.016;23.098;2023-11-19T03:46:30;5.00;;;1.75;;
7336;SDS011;54510;42.016;23.098;2023-11-19T03:48:56;4.82;;;1.40;;
7336;SDS011;54510;42.016;23.098;2023-11-19T03:51:21;4.20;;;1.92;;
7336;SDS011;54510;42.016;23.098;2023-11-19T03:53:47;2.72;;;1.27;;
7336;SDS011;54510;42.016;23.098;2023-11-19T03:56:12;2.85;;;1.30;;
7336;SDS011;54510;42.016;23.098;2023-11-19T03:58:38;3.13;;;1.50;;
7336;SDS011;54510;42.016;23.098;2023-11-19T04:01:13;5.47;;;1.42;;
7336;SDS011;54510;42.016;23.098;2023-11-19T04:03:38;4.53;;;1.52;;
7336;SDS011;54510;42.016;23.098;2023-11-19T04:06:04;2.85;;;1.40;;
7336;SDS011;54510;42.016;23.098;2023-11-19T04:08:29;5.47;;;1.50;;
7336;SDS011;54510;42.016;23.098;2023-11-19T04:10:55;2.55;;;1.50;;
7336;SDS011;54510;42.016;23.098;2023-11-19T04:13:20;4.55;;;1.77;;
7336;SDS011;54510;42.016;23.098;2023-11-19T04:15:48;4.63;;;2.08;;
7336;SDS011;54510;42.016;23.098;2023-11-19T04:18:14;2.17;;;1.17;;
7336;SDS011;54510;42.016;23.098;2023-11-19T04:20:39;7.03;;;2.15;;
7336;SDS011;54510;42.016;23.098;2023-11-19T04:23:07;4.78;;;1.90;;
7336;SDS011;54510;42.016;23.098;2023-11-19T04:25:32;2.72;;;1.25;;
7336;SDS011;54510;42.016;23.098;2023-11-19T04:27:58;3.05;;;1.65;;
7336;SDS011;54510;42.016;23.098;2023-11-19T04:30:23;4.55;;;1.58;;
7336;SDS011;54510;42.016;23.098;2023-11-19T04:32:49;2.70;;;1.55;;
7336;SDS011;54510;42.016;23.098;2023-11-19T04:35:14;2.30;;;1.38;;
7336;SDS011;54510;42.016;23.098;2023-11-19T04:37:41;2.97;;;1.60;;
7336;SDS011;54510;42.016;23.098;2023-11-19T04:40:07;9.25;;;1.55;;
7336;SDS011;54510;42.016;23.098;2023-11-19T04:42:32;2.40;;;1.10;;
7336;SDS011;54510;42.016;23.098;2023-11-19T04:44:58;1.77;;;1.27;;
7336;SDS011;54510;42.016;23.098;2023-11-19T04:47:23;3.88;;;1.48;;
7336;SDS011;54510;42.016;23.098;2023-11-19T04:49:49;2.70;;;1.35;;
7336;SDS011;54510;42.016;23.098;2023-11-19T04:52:14;3.08;;;1.40;;
7336;SDS011;54510;42.016;23.098;2023-11-19T04:54:43;2.15;;;1.30;;
7336;SDS011;54510;42.016;23.098;2023-11-19T04:57:08;1.45;;;1.02;;
7336;SDS011;54510;42.016;23.098;2023-11-19T04:59:37;3.95;;;1.30;;
7336;SDS011;54510;42.016;23.098;2023-11-19T05:02:03;2.60;;;1.30;;
7336;SDS011;54510;42.016;23.098;2023-11-19T05:04:29;2.67;;;1.35;;
7336;SDS011;54510;42.016;23.098;2023-11-19T05:06:55;2.13;;;1.30;;
7336;SDS011;54510;42.016;23.098;2023-11-19T05:09:20;2.85;;;1.60;;
7336;SDS011;54510;42.016;23.098;2023-11-19T05:11:46;2.35;;;1.58;;
7336;SDS011;54510;42.016;23.098;2023-11-19T05:14:11;1.88;;;1.63;;
7336;SDS011;54510;42.016;23.098;2023-11-19T05:16:39;3.50;;;1.60;;
7336;SDS011;54510;42.016;23.098;2023-11-19T05:19:05;1.45;;;1.00;;
7336;SDS011;54510;42.016;23.098;2023-11-19T05:21:30;2.25;;;1.52;;
7336;SDS011;54510;42.016;23.098;2023-11-19T05:23:56;2.78;;;1.42;;
7336;SDS011;54510;42.016;23.098;2023-11-19T05:26:22;3.60;;;1.42;;
7336;SDS011;54510;42.016;23.098;2023-11-19T05:28:48;2.40;;;1.80;;
7336;SDS011;54510;42.016;23.098;2023-11-19T05:31:15;2.88;;;1.40;;
7336;SDS011;54510;42.016;23.098;2023-11-19T05:33:42;4.93;;;1.70;;
7336;SDS011;54510;42.016;23.098;2023-11-19T05:36:07;6.95;;;2.10;;
7336;SDS011;54510;42.016;23.098;2023-11-19T05:38:33;6.85;;;2.05;;
7336;SDS011;54510;42.016;23.098;2023-11-19T05:41:02;4.97;;;1.75;;
7336;SDS011;54510;42.016;23.098;2023-11-19T05:43:28;5.97;;;2.83;;
7336;SDS011;54510;42.016;23.098;2023-11-19T05:45:53;4.63;;;1.95;;
7336;SDS011;54510;42.016;23.098;2023-11-19T05:48:18;4.65;;;2.33;;
7336;SDS011;54510;42.016;23.098;2023-11-19T05:50:44;5.20;;;1.70;;
7336;SDS011;54510;42.016;23.098;2023-11-19T05:53:09;10.23;;;3.40;;
7336;SDS011;54510;42.016;23.098;2023-11-19T05:55:38;5.03;;;2.22;;
7336;SDS011;54510;42.016;23.098;2023-11-19T05:58:25;4.32;;;2.35;;
7336;SDS011;54510;42.016;23.098;2023-11-19T06:00:54;8.55;;;2.05;;
7336;SDS011;54510;42.016;23.098;2023-11-19T06:03:20;7.28;;;2.42;;
7336;SDS011;54510;42.016;23.098;2023-11-19T06:05:46;4.82;;;2.15;;
7336;SDS011;54510;42.016;23.098;2023-11-19T06:08:13;5.05;;;2.20;;
7336;SDS011;54510;42.016;23.098;2023-11-19T06:10:42;8.15;;;2.78;;
7336;SDS011;54510;42.016;23.098;2023-11-19T06:13:11;7.40;;;2.47;;
7336;SDS011;54510;42.016;23.098;2023-11-19T06:15:36;8.60;;;3.15;;
7336;SDS011;54510;42.016;23.098;2023-11-19T06:18:02;4.95;;;2.60;;
7336;SDS011;54510;42.016;23.098;2023-11-19T06:20:32;4.43;;;2.33;;
7336;SDS011;54510;42.016;23.098;2023-11-19T06:22:58;9.27;;;3.28;;
7336;SDS011;54510;42.016;23.098;2023-11-19T06:25:23;6.15;;;2.00;;
7336;SDS011;54510;42.016;23.098;2023-11-19T06:27:49;4.63;;;2.15;;
7336;SDS011;54510;42.016;23.098;2023-11-19T06:30:15;2.90;;;2.20;;
7336;SDS011;54510;42.016;23.098;2023-11-19T06:32:40;2.85;;;1.88;;
7336;SDS011;54510;42.016;23.098;2023-11-19T06:35:06;4.80;;;1.60;;
7336;SDS011;54510;42.016;23.098;2023-11-19T06:37:32;3.47;;;1.85;;
7336;SDS011;54510;42.016;23.098;2023-11-19T06:39:57;4.38;;;1.40;;
7336;SDS011;54510;42.016;23.098;2023-11-19T06:42:23;3.72;;;1.85;;
7336;SDS011;54510;42.016;23.098;2023-11-19T06:44:48;2.13;;;1.55;;
7336;SDS011;54510;42.016;23.098;2023-11-19T06:47:14;3.13;;;2.05;;
7336;SDS011;54510;42.016;23.098;2023-11-19T06:49:39;4.55;;;2.00;;
7336;SDS011;54510;42.016;23.098;2023-11-19T06:52:05;2.63;;;1.75;;
7336;SDS011;54510;42.016;23.098;2023-11-19T06:54:30;4.05;;;1.65;;
7336;SDS011;54510;42.016;23.098;2023-11-19T06:56:56;5.80;;;1.90;;
7336;SDS011;54510;42.016;23.098;2023-11-19T06:59:22;4.45;;;2.10;;
7336;SDS011;54510;42.016;23.098;2023-11-19T07:01:48;2.42;;;1.80;;
7336;SDS011;54510;42.016;23.098;2023-11-19T07:04:13;3.25;;;1.65;;
7336;SDS011;54510;42.016;23.098;2023-11-19T07:06:39;6.03;;;2.55;;
7336;SDS011;54510;42.016;23.098;2023-11-19T07:09:07;3.63;;;1.75;;
7336;SDS011;54510;42.016;23.098;2023-11-19T07:11:36;3.30;;;1.60;;
7336;SDS011;54510;42.016;23.098;2023-11-19T07:14:03;2.67;;;1.48;;
7336;SDS011;54510;42.016;23.098;2023-11-19T07:16:29;4.25;;;2.13;;
7336;SDS011;54510;42.016;23.098;2023-11-19T07:18:54;4.38;;;1.95;;
7336;SDS011;54510;42.016;23.098;2023-11-19T07:21:20;3.38;;;1.70;;
7336;SDS011;54510;42.016;23.098;2023-11-19T07:23:45;4.00;;;2.47;;
7336;SDS011;54510;42.016;23.098;2023-11-19T07:26:11;2.42;;;1.65;;
7336;SDS011;54510;42.016;23.098;2023-11-19T07:28:37;7.50;;;2.83;;
7336;SDS011;54510;42.016;23.098;2023-11-19T07:31:04;4.97;;;2.30;;
7336;SDS011;54510;42.016;23.098;2023-11-19T07:33:32;3.78;;;2.05;;
7336;SDS011;54510;42.016;23.098;2023-11-19T07:35:58;4.50;;;2.08;;
7336;SDS011;54510;42.016;23.098;2023-11-19T07:38:24;7.45;;;2.22;;
7336;SDS011;54510;42.016;23.098;2023-11-19T07:40:49;5.00;;;2.13;;
7336;SDS011;54510;42.016;23.098;2023-11-19T07:43:14;5.25;;;2.50;;
7336;SDS011;54510;42.016;23.098;2023-11-19T07:45:40;5.28;;;2.35;;
7336;SDS011;54510;42.016;23.098;2023-11-19T07:48:10;3.90;;;2.28;;
7336;SDS011;54510;42.016;23.098;2023-11-19T07:50:38;3.90;;;1.80;;
7336;SDS011;54510;42.016;23.098;2023-11-19T07:53:03;3.28;;;1.77;;
7336;SDS011;54510;42.016;23.098;2023-11-19T07:55:29;5.55;;;1.90;;
7336;SDS011;54510;42.016;23.098;2023-11-19T07:57:55;2.30;;;1.63;;
7336;SDS011;54510;42.016;23.098;2023-11-19T08:00:20;3.58;;;1.73;;
7336;SDS011;54510;42.016;23.098;2023-11-19T08:02:46;4.75;;;1.40;;
7336;SDS011;54510;42.016;23.098;2023-11-19T08:05:11;5.50;;;2.05;;
7336;SDS011;54510;42.016;23.098;2023-11-19T08:07:37;5.57;;;1.80;;
7336;SDS011;54510;42.016;23.098;2023-11-19T08:10:02;3.60;;;2.30;;
7336;SDS011;54510;42.016;23.098;2023-11-19T08:12:30;3.13;;;1.60;;
7336;SDS011;54510;42.016;23.098;2023-11-19T08:14:56;4.05;;;1.77;;
7336;SDS011;54510;42.016;23.098;2023-11-19T08:17:23;4.22;;;1.92;;
7336;SDS011;54510;42.016;23.098;2023-11-19T08:19:49;3.35;;;2.00;;
7336;SDS011;54510;42.016;23.098;2023-11-19T08:22:14;2.42;;;1.80;;
7336;SDS011;54510;42.016;23.098;2023-11-19T08:24:41;5.15;;;2.20;;
7336;SDS011;54510;42.016;23.098;2023-11-19T08:27:08;3.33;;;1.55;;
7336;SDS011;54510;42.016;23.098;2023-11-19T08:29:33;3.80;;;2.35;;
7336;SDS011;54510;42.016;23.098;2023-11-19T08:32:00;4.38;;;1.92;;
7336;SDS011;54510;42.016;23.098;2023-11-19T08:34:27;3.83;;;1.80;;
7336;SDS011;54510;42.016;23.098;2023-11-19T08:36:52;3.65;;;1.67;;
7336;SDS011;54510;42.016;23.098;2023-11-19T08:39:21;4.03;;;1.85;;
7336;SDS011;54510;42.016;23.098;2023-11-19T08:41:49;5.70;;;3.25;;
7336;SDS011;54510;42.016;23.098;2023-11-19T08:44:15;17.35;;;9.10;;
7336;SDS011;54510;42.016;23.098;2023-11-19T08:46:50;6.45;;;2.55;;
7336;SDS011;54510;42.016;23.098;2023-11-19T08:49:15;3.50;;;1.80;;
7336;SDS011;54510;42.016;23.098;2023-11-19T08:51:41;3.20;;;1.85;;
7336;SDS011;54510;42.016;23.098;2023-11-19T08:54:07;5.05;;;2.40;;
7336;SDS011;54510;42.016;23.098;2023-11-19T08:56:32;4.75;;;2.17;;
7336;SDS011;54510;42.016;23.098;2023-11-19T08:58:59;4.43;;;1.95;;
7336;SDS011;54510;42.016;23.098;2023-11-19T09:01:25;3.53;;;1.80;;
7336;SDS011;54510;42.016;23.098;2023-11-19T09:03:50;4.28;;;1.85;;
7336;SDS011;54510;42.016;23.098;2023-11-19T09:06:17;2.88;;;1.65;;
7336;SDS011;54510;42.016;23.098;2023-11-19T09:08:42;3.72;;;1.80;;
7336;SDS011;54510;42.016;23.098;2023-11-19T09:11:08;2.65;;;1.70;;
7336;SDS011;54510;42.016;23.098;2023-11-19T09:13:34;1.95;;;1.40;;
7336;SDS011;54510;42.016;23.098;2023-11-19T09:16:00;2.92;;;1.55;;
7336;SDS011;54510;42.016;23.098;2023-11-19T09:18:29;3.40;;;2.03;;
7336;SDS011;54510;42.016;23.098;2023-11-19T09:20:54;5.88;;;2.40;;
7336;SDS011;54510;42.016;23.098;2023-11-19T09:23:20;3.85;;;2.13;;
7336;SDS011;54510;42.016;23.098;2023-11-19T09:25:45;2.70;;;1.35;;
7336;SDS011;54510;42.016;23.098;2023-11-19T09:28:11;5.68;;;3.22;;
7336;SDS011;54510;42.016;23.098;2023-11-19T09:30:36;3.22;;;1.80;;
7336;SDS011;54510;42.016;23.098;2023-11-19T09:33:02;3.17;;;1.80;;
7336;SDS011;54510;42.016;23.098;2023-11-19T09:35:27;4.10;;;2.20;;
7336;SDS011;54510;42.016;23.098;2023-11-19T09:37:53;3.72;;;2.25;;
7336;SDS011;54510;42.016;23.098;2023-11-19T09:40:18;2.13;;;1.60;;
7336;SDS011;54510;42.016;23.098;2023-11-19T09:42:44;2.20;;;1.20;;
7336;SDS011;54510;42.016;23.098;2023-11-19T09:45:13;3.03;;;1.60;;
7336;SDS011;54510;42.016;23.098;2023-11-19T09:47:44;1.92;;;1.17;;
7336;SDS011;54510;42.016;23.098;2023-11-19T09:50:20;2.10;;;1.27;;
7336;SDS011;54510;42.016;23.098;2023-11-19T09:52:48;2.50;;;1.52;;
7336;SDS011;54510;42.016;23.098;2023-11-19T09:55:14;2.17;;;1.83;;
7336;SDS011;54510;42.016;23.098;2023-11-19T09:57:39;3.83;;;1.83;;
7336;SDS011;54510;42.016;23.098;2023-11-19T10:00:09;2.70;;;1.70;;
7336;SDS011;54510;42.016;23.098;2023-11-19T10:02:36;3.05;;;1.58;;
7336;SDS011;54510;42.016;23.098;2023-11-19T10:05:08;3.80;;;1.65;;
7336;SDS011;54510;42.016;23.098;2023-11-19T10:07:35;2.00;;;1.50;;
7336;SDS011;54510;42.016;23.098;2023-11-19T10:10:03;2.53;;;1.58;;
7336;SDS011;54510;42.016;23.098;2023-11-19T10:12:29;2.55;;;1.60;;
7336;SDS011;54510;42.016;23.098;2023-11-19T10:14:56;2.50;;;1.45;;
7336;SDS011;54510;42.016;23.098;2023-11-19T10:17:28;1.50;;;1.10;;
7336;SDS011;54510;42.016;23.098;2023-11-19T10:19:57;2.47;;;1.52;;
7336;SDS011;54510;42.016;23.098;2023-11-19T10:22:22;2.10;;;1.40;;
7336;SDS011;54510;42.016;23.098;2023-11-19T10:24:49;1.45;;;1.13;;
7336;SDS011;54510;42.016;23.098;2023-11-19T10:27:15;3.47;;;1.58;;
7336;SDS011;54510;42.016;23.098;2023-11-19T10:29:40;3.70;;;1.70;;
7336;SDS011;54510;42.016;23.098;2023-11-19T10:32:10;2.05;;;1.50;;
7336;SDS011;54510;42.016;23.098;2023-11-19T10:34:37;2.85;;;1.52;;
7336;SDS011;54510;42.016;23.098;2023-11-19T10:37:04;2.85;;;1.77;;
7336;SDS011;54510;42.016;23.098;2023-11-19T10:39:51;2.75;;;1.50;;
7336;SDS011;54510;42.016;23.098;2023-11-19T10:42:18;2.72;;;1.33;;
7336;SDS011;54510;42.016;23.098;2023-11-19T10:44:43;2.08;;;1.35;;
7336;SDS011;54510;42.016;23.098;2023-11-19T10:47:09;6.30;;;1.90;;
7336;SDS011;54510;42.016;23.098;2023-11-19T10:49:36;3.80;;;1.88;;
7336;SDS011;54510;42.016;23.098;2023-11-19T10:52:03;3.00;;;1.65;;
7336;SDS011;54510;42.016;23.098;2023-11-19T10:54:30;3.10;;;1.75;;
7336;SDS011;54510;42.016;23.098;2023-11-19T10:57:00;1.80;;;1.30;;
7336;SDS011;54510;42.016;23.098;2023-11-19T10:59:28;3.25;;;1.98;;
7336;SDS011;54510;42.016;23.098;2023-11-19T11:01:57;3.60;;;1.73;;
7336;SDS011;54510;42.016;23.098;2023-11-19T11:04:23;4.00;;;2.08;;
7336;SDS011;54510;42.016;23.098;2023-11-19T11:06:51;2.17;;;1.63;;
7336;SDS011;54510;42.016;23.098;2023-11-19T11:09:19;2.03;;;1.40;;
7336;SDS011;54510;42.016;23.098;2023-11-19T11:11:46;2.58;;;1.80;;
7336;SDS011;54510;42.016;23.098;2023-11-19T11:14:12;4.38;;;1.83;;
7336;SDS011;54510;42.016;23.098;2023-11-19T11:16:44;2.05;;;1.48;;
7336;SDS011;54510;42.016;23.098;2023-11-19T11:19:11;3.30;;;1.58;;
7336;SDS011;54510;42.016;23.098;2023-11-19T11:21:38;2.28;;;1.45;;
7336;SDS011;54510;42.016;23.098;2023-11-19T11:24:48;3.22;;;1.73;;
7336;SDS011;54510;42.016;23.098;2023-11-19T11:32:33;2.20;;;1.42;;
7336;SDS011;54510;42.016;23.098;2023-11-19T11:37:32;4.78;;;1.48;;
7336;SDS011;54510;42.016;23.098;2023-11-19T11:40:03;3.25;;;1.95;;
7336;SDS011;54510;42.016;23.098;2023-11-19T11:42:35;3.80;;;1.70;;
7336;SDS011;54510;42.016;23.098;2023-11-19T11:50:08;3.03;;;1.50;;
7336;SDS011;54510;42.016;23.098;2023-11-19T11:55:27;2.67;;;2.03;;
7336;SDS011;54510;42.016;23.098;2023-11-19T11:57:58;2.80;;;1.88;;
7336;SDS011;54510;42.016;23.098;2023-11-19T12:00:27;2.75;;;2.08;;
7336;SDS011;54510;42.016;23.098;2023-11-19T12:02:55;2.47;;;1.60;;
7336;SDS011;54510;42.016;23.098;2023-11-19T12:05:21;3.05;;;1.80;;
7336;SDS011;54510;42.016;23.098;2023-11-19T12:10:26;2.60;;;1.45;;
7336;SDS011;54510;42.016;23.098;2023-11-19T12:13:01;2.28;;;1.40;;
7336;SDS011;54510;42.016;23.098;2023-11-19T12:15:27;3.15;;;1.90;;
7336;SDS011;54510;42.016;23.098;2023-11-19T12:17:56;2.20;;;1.50;;
7336;SDS011;54510;42.016;23.098;2023-11-19T12:20:22;3.20;;;1.80;;
7336;SDS011;54510;42.016;23.098;2023-11-19T12:22:52;2.25;;;1.77;;
7336;SDS011;54510;42.016;23.098;2023-11-19T12:25:18;3.03;;;1.52;;
7336;SDS011;54510;42.016;23.098;2023-11-19T12:27:49;2.28;;;1.55;;
7336;SDS011;54510;42.016;23.098;2023-11-19T12:30:24;3.50;;;1.67;;
7336;SDS011;54510;42.016;23.098;2023-11-19T12:32:50;3.10;;;1.65;;
7336;SDS011;54510;42.016;23.098;2023-11-19T12:35:18;4.38;;;2.00;;
7336;SDS011;54510;42.016;23.098;2023-11-19T12:37:48;2.92;;;1.75;;
7336;SDS011;54510;42.016;23.098;2023-11-19T12:40:18;2.90;;;1.45;;
7336;SDS011;54510;42.016;23.098;2023-11-19T12:42:45;2.83;;;1.30;;
7336;SDS011;54510;42.016;23.098;2023-11-19T12:45:12;4.47;;;1.45;;
7336;SDS011;54510;42.016;23.098;2023-11-19T12:47:41;4.28;;;1.88;;
7336;SDS011;54510;42.016;23.098;2023-11-19T12:50:12;3.40;;;1.58;;
7336;SDS011;54510;42.016;23.098;2023-11-19T12:52:38;2.33;;;1.63;;
7336;SDS011;54510;42.016;23.098;2023-11-19T12:55:04;2.20;;;1.48;;
7336;SDS011;54510;42.016;23.098;2023-11-19T12:57:48;6.20;;;2.15;;
7336;SDS011;54510;42.016;23.098;2023-11-19T13:00:21;3.35;;;1.70;;
7336;SDS011;54510;42.016;23.098;2023-11-19T13:02:57;3.65;;;2.08;;
7336;SDS011;54510;42.016;23.098;2023-11-19T13:05:30;2.37;;;1.80;;
7336;SDS011;54510;42.016;23.098;2023-11-19T13:08:01;2.30;;;1.70;;
7336;SDS011;54510;42.016;23.098;2023-11-19T13:10:28;3.03;;;1.42;;
7336;SDS011;54510;42.016;23.098;2023-11-19T13:13:03;5.22;;;3.10;;
7336;SDS011;54510;42.016;23.098;2023-11-19T13:15:35;2.28;;;1.70;;
7336;SDS011;54510;42.016;23.098;2023-11-19T13:18:01;3.30;;;1.83;;
7336;SDS011;54510;42.016;23.098;2023-11-19T13:20:27;3.45;;;1.60;;
7336;SDS011;54510;42.016;23.098;2023-11-19T13:23:00;7.35;;;3.38;;
7336;SDS011;54510;42.016;23.098;2023-11-19T13:25:27;3.00;;;1.83;;
7336;SDS011;54510;42.016;23.098;2023-11-19T13:27:53;3.55;;;1.70;;
7336;SDS011;54510;42.016;23.098;2023-11-19T13:30:19;2.05;;;1.38;;
7336;SDS011;54510;42.016;23.098;2023-11-19T13:32:45;4.38;;;2.22;;
7336;SDS011;54510;42.016;23.098;2023-11-19T13:35:13;3.65;;;2.60;;
7336;SDS011;54510;42.016;23.098;2023-11-19T13:37:39;4.53;;;2.72;;
7336;SDS011;54510;42.016;23.098;2023-11-19T13:40:08;4.72;;;2.58;;
7336;SDS011;54510;42.016;23.098;2023-11-19T13:42:35;4.15;;;2.00;;
7336;SDS011;54510;42.016;23.098;2023-11-19T13:45:06;4.43;;;2.72;;
7336;SDS011;54510;42.016;23.098;2023-11-19T13:47:35;3.60;;;2.28;;
7336;SDS011;54510;42.016;23.098;2023-11-19T13:50:01;5.15;;;2.88;;
7336;SDS011;54510;42.016;23.098;2023-11-19T13:52:27;2.97;;;2.10;;
7336;SDS011;54510;42.016;23.098;2023-11-19T13:54:52;4.35;;;2.55;;
7336;SDS011;54510;42.016;23.098;2023-11-19T13:57:17;4.22;;;2.17;;
7336;SDS011;54510;42.016;23.098;2023-11-19T13:59:43;4.13;;;3.20;;
7336;SDS011;54510;42.016;23.098;2023-11-19T14:02:09;5.43;;;3.13;;
7336;SDS011;54510;42.016;23.098;2023-11-19T14:04:34;5.00;;;3.22;;
7336;SDS011;54510;42.016;23.098;2023-11-19T14:07:00;3.88;;;2.58;;
7336;SDS011;54510;42.016;23.098;2023-11-19T14:09:25;2.70;;;1.83;;
7336;SDS011;54510;42.016;23.098;2023-11-19T14:11:51;3.17;;;2.30;;
7336;SDS011;54510;42.016;23.098;2023-11-19T14:14:16;4.55;;;2.38;;
7336;SDS011;54510;42.016;23.098;2023-11-19T14:16:42;2.65;;;1.98;;
7336;SDS011;54510;42.016;23.098;2023-11-19T14:19:07;4.50;;;2.38;;
7336;SDS011;54510;42.016;23.098;2023-11-19T14:21:33;6.50;;;2.53;;
7336;SDS011;54510;42.016;23.098;2023-11-19T14:23:58;6.13;;;3.47;;
7336;SDS011;54510;42.016;23.098;2023-11-19T14:26:24;11.48;;;4.57;;
7336;SDS011;54510;42.016;23.098;2023-11-19T14:28:49;10.35;;;5.65;;
7336;SDS011;54510;42.016;23.098;2023-11-19T14:31:14;6.90;;;3.13;;
7336;SDS011;54510;42.016;23.098;2023-11-19T14:33:40;11.88;;;3.90;;
7336;SDS011;54510;42.016;23.098;2023-11-19T14:36:06;7.60;;;4.32;;
7336;SDS011;54510;42.016;23.098;2023-11-19T14:38:32;5.93;;;3.60;;
7336;SDS011;54510;42.016;23.098;2023-11-19T14:40:58;5.78;;;3.78;;
7336;SDS011;54510;42.016;23.098;2023-11-19T14:43:24;9.85;;;5.10;;
7336;SDS011;54510;42.016;23.098;2023-11-19T14:45:50;6.97;;;4.45;;
7336;SDS011;54510;42.016;23.098;2023-11-19T14:48:15;7.10;;;3.95;;
7336;SDS011;54510;42.016;23.098;2023-11-19T14:50:42;8.45;;;4.97;;
7336;SDS011;54510;42.016;23.098;2023-11-19T14:53:09;10.90;;;6.13;;
7336;SDS011;54510;42.016;23.098;2023-11-19T14:55:35;5.53;;;3.22;;
7336;SDS011;54510;42.016;23.098;2023-11-19T14:58:00;6.63;;;4.18;;
7336;SDS011;54510;42.016;23.098;2023-11-19T15:00:26;7.15;;;4.32;;
7336;SDS011;54510;42.016;23.098;2023-11-19T15:02:51;9.25;;;5.03;;
7336;SDS011;54510;42.016;23.098;2023-11-19T15:05:17;7.07;;;4.68;;